Time;durP1;ratioP1;P1;durP2;ratioP2;P2;SDS_P1;SDS_P2;PMS_P1;PMS_P2;Temp;Humidity;BMP_temperature;BMP_pressure;BME280_temperature;BME280_humidity;BME280_pressure;Samples;Min_cycle;Max_cycle;Signal;HPM_P1;HPM_P2
2022/06/07 00:02:19;;;;;;;5.72;5.22;;;14.50;99.90;;;;;;5014950;28;20607;-72
2022/06/07 00:04:46;;;;;;;7.20;6.13;;;14.50;99.90;;;;;;5014716;28;20209;-71
2022/06/07 00:07:13;;;;;;;7.68;6.40;;;14.60;99.90;;;;;;5014458;28;20710;-71
2022/06/07 00:09:40;;;;;;;6.93;6.30;;;14.50;99.90;;;;;;5013919;28;20206;-71
2022/06/07 00:12:07;;;;;;;7.43;6.75;;;14.60;99.90;;;;;;5015108;28;20364;-74
2022/06/07 00:14:35;;;;;;;6.50;5.90;;;14.60;99.90;;;;;;5017517;28;20704;-71
2022/06/07 00:17:02;;;;;;;5.78;5.28;;;14.60;99.90;;;;;;5017618;28;20232;-71
2022/06/07 00:19:30;;;;;;;7.18;6.50;;;14.60;99.90;;;;;;5009770;28;20236;-70
2022/06/07 00:21:57;;;;;;;9.95;8.13;;;14.60;99.90;;;;;;5004142;28;20336;-71
2022/06/07 00:24:25;;;;;;;7.45;6.75;;;14.60;99.90;;;;;;5013044;28;20247;-72
2022/06/07 00:26:52;;;;;;;7.25;6.55;;;14.60;99.90;;;;;;5013308;28;20208;-71
2022/06/07 00:29:20;;;;;;;9.45;7.30;;;14.60;99.90;;;;;;5020589;28;20515;-71
2022/06/07 00:31:47;;;;;;;8.55;7.40;;;14.60;99.90;;;;;;5013843;28;20228;-70
2022/06/07 00:34:15;;;;;;;8.32;7.60;;;14.60;99.90;;;;;;5013683;28;20197;-72
2022/06/07 00:36:45;;;;;;;8.25;7.45;;;14.60;99.90;;;;;;5013300;28;20196;-69
2022/06/07 00:39:12;;;;;;;7.20;6.57;;;14.50;99.90;;;;;;5017982;28;20280;-73
2022/06/07 00:41:39;;;;;;;8.68;7.88;;;14.60;99.90;;;;;;5005894;28;20246;-70
2022/06/07 00:44:33;;;;;;;9.13;7.82;;;14.60;99.90;;;;;;5013799;28;20197;-72
2022/06/07 00:47:03;;;;;;;9.18;8.27;;;14.60;99.90;;;;;;5015805;28;20258;-71
2022/06/07 00:49:34;;;;;;;7.40;6.70;;;14.60;99.90;;;;;;5010048;28;20287;-71
2022/06/07 00:52:03;;;;;;;8.38;7.55;;;14.60;99.90;;;;;;5009200;28;20581;-72
2022/06/07 00:54:32;;;;;;;8.40;7.57;;;14.60;99.90;;;;;;5011446;28;20280;-71
2022/06/07 00:57:00;;;;;;;8.18;7.43;;;14.70;99.90;;;;;;5020131;28;20216;-71
2022/06/07 00:59:28;;;;;;;7.35;6.65;;;14.60;99.90;;;;;;4997799;28;20291;-72
2022/06/07 01:01:55;;;;;;;8.10;7.40;;;14.70;99.90;;;;;;5012558;28;20289;-72
2022/06/07 01:04:23;;;;;;;7.30;6.72;;;14.70;99.90;;;;;;5011871;28;20284;-71
2022/06/07 01:12:21;;;;;;;9.02;8.10;;;14.70;99.90;;;;;;5012010;28;20323;-72
2022/06/07 01:14:47;;;;;;;8.32;7.55;;;14.60;99.90;;;;;;5014226;28;20292;-72
2022/06/07 01:17:14;;;;;;;9.00;7.55;;;14.60;99.90;;;;;;5022734;28;20236;-73
2022/06/07 01:19:41;;;;;;;12.90;8.30;;;14.60;99.90;;;;;;5014322;28;20284;-70
2022/06/07 01:22:10;;;;;;;7.57;6.88;;;14.50;99.90;;;;;;5013313;28;20312;-70
2022/06/07 01:24:37;;;;;;;7.80;7.00;;;14.60;99.90;;;;;;5021117;28;20693;-71
2022/06/07 01:27:05;;;;;;;8.98;8.07;;;14.50;99.90;;;;;;5023101;28;20284;-70
2022/06/07 01:29:32;;;;;;;8.40;7.60;;;14.50;99.90;;;;;;5009494;28;20228;-72
2022/06/07 01:31:59;;;;;;;8.00;7.30;;;14.50;99.90;;;;;;5016294;28;20262;-71
2022/06/07 01:34:27;;;;;;;8.48;7.72;;;14.50;99.90;;;;;;5012213;28;20232;-72
2022/06/07 01:36:55;;;;;;;8.23;7.03;;;14.40;99.90;;;;;;5022342;28;20212;-71
2022/06/07 01:42:10;;;;;;;6.07;5.47;;;14.40;99.90;;;;;;5020003;28;20259;-72
2022/06/07 01:44:39;;;;;;;6.28;5.68;;;14.40;99.90;;;;;;5023764;28;20209;-69
2022/06/07 01:47:09;;;;;;;6.70;6.07;;;14.40;99.90;;;;;;5021138;28;20667;-71
2022/06/07 01:49:40;;;;;;;6.55;5.70;;;14.40;99.90;;;;;;5022135;28;20647;-72
2022/06/07 01:52:08;;;;;;;6.13;5.50;;;14.40;99.90;;;;;;5022921;28;20225;-71
2022/06/07 01:54:38;;;;;;;8.77;5.30;;;14.40;99.90;;;;;;5015041;28;20212;-71
2022/06/07 01:57:07;;;;;;;7.22;5.30;;;14.40;99.90;;;;;;5026600;28;20212;-71
2022/06/07 01:59:34;;;;;;;5.80;5.30;;;14.40;99.90;;;;;;5021613;28;20213;-71
2022/06/07 02:02:01;;;;;;;4.97;4.47;;;14.30;99.90;;;;;;5014671;28;20629;-71
2022/06/07 02:04:28;;;;;;;5.85;4.93;;;14.30;99.90;;;;;;5019491;28;20291;-71
2022/06/07 02:06:56;;;;;;;4.82;4.40;;;14.20;99.90;;;;;;5018873;28;20208;-70
2022/06/07 02:09:23;;;;;;;5.93;5.07;;;14.20;99.90;;;;;;5026448;28;20263;-72
2022/06/07 02:11:51;;;;;;;5.53;4.55;;;14.20;99.90;;;;;;5015899;28;20304;-73
2022/06/07 02:14:18;;;;;;;7.97;5.00;;;14.30;99.90;;;;;;5017281;28;20221;-70
2022/06/07 02:16:46;;;;;;;5.05;4.55;;;14.20;99.90;;;;;;5017300;28;20216;-70
2022/06/07 02:19:13;;;;;;;4.93;4.25;;;14.10;99.90;;;;;;5019763;28;20205;-70
2022/06/07 02:21:41;;;;;;;5.55;4.60;;;14.10;99.90;;;;;;5013125;28;20213;-73
2022/06/07 02:24:09;;;;;;;5.35;4.50;;;14.10;99.90;;;;;;5015128;28;20272;-69
2022/06/07 02:26:39;;;;;;;5.22;4.72;;;14.10;99.90;;;;;;5016069;28;20615;-71
2022/06/07 02:29:16;;;;;;;4.70;4.30;;;14.20;99.90;;;;;;5016760;28;20216;-71
2022/06/07 02:31:51;;;;;;;6.10;5.50;;;14.20;99.90;;;;;;5019496;28;20243;-72
2022/06/07 02:34:20;;;;;;;5.10;4.70;;;14.10;99.90;;;;;;5008708;28;20566;-70
2022/06/07 02:36:52;;;;;;;4.60;4.25;;;14.10;99.90;;;;;;5015866;28;20212;-70
2022/06/07 02:39:20;;;;;;;8.98;4.15;;;14.10;99.90;;;;;;5017055;28;20204;-71
2022/06/07 02:41:48;;;;;;;4.45;3.78;;;14.20;99.90;;;;;;5015563;28;20228;-71
2022/06/07 02:44:17;;;;;;;4.75;4.30;;;14.20;99.90;;;;;;5012443;28;20284;-72
2022/06/07 02:46:44;;;;;;;5.00;4.30;;;14.10;99.90;;;;;;5016179;28;20209;-71
2022/06/07 02:49:11;;;;;;;4.50;4.10;;;14.10;99.90;;;;;;5017265;28;20201;-71
2022/06/07 02:51:39;;;;;;;5.13;4.40;;;14.00;99.90;;;;;;5015235;28;20263;-71
2022/06/07 02:54:06;;;;;;;5.35;4.75;;;14.00;99.90;;;;;;5016616;28;20251;-71
2022/06/07 02:56:33;;;;;;;4.95;4.32;;;14.10;99.90;;;;;;5017278;28;20323;-73
2022/06/07 02:59:00;;;;;;;4.82;4.43;;;14.00;99.90;;;;;;5016090;28;20213;-72
2022/06/07 03:01:29;;;;;;;4.93;4.53;;;14.00;99.90;;;;;;5017176;28;20724;-72
2022/06/07 03:03:58;;;;;;;4.65;4.25;;;14.00;99.90;;;;;;5025381;28;20223;-72
2022/06/07 03:06:26;;;;;;;6.28;4.35;;;13.90;99.90;;;;;;5020722;28;20256;-72
2022/06/07 03:08:53;;;;;;;4.25;3.85;;;14.00;99.90;;;;;;5020288;28;20602;-71
2022/06/07 03:11:21;;;;;;;7.45;4.15;;;14.10;99.90;;;;;;5019716;28;20258;-72
2022/06/07 03:13:48;;;;;;;4.68;4.20;;;14.00;99.90;;;;;;5015234;28;20758;-74
2022/06/07 03:16:16;;;;;;;5.55;3.88;;;14.00;99.90;;;;;;5010905;28;20201;-73
2022/06/07 03:18:44;;;;;;;5.35;3.42;;;14.10;99.90;;;;;;5015178;28;20204;-71
2022/06/07 03:21:11;;;;;;;4.95;4.45;;;14.20;99.90;;;;;;5014933;28;20292;-71
2022/06/07 03:23:39;;;;;;;4.82;4.43;;;14.20;99.90;;;;;;5015108;28;20220;-71
2022/06/07 03:26:08;;;;;;;4.90;4.40;;;14.20;99.90;;;;;;5020183;28;20220;-72
2022/06/07 03:28:35;;;;;;;5.10;4.60;;;14.30;99.90;;;;;;5017818;28;20201;-71
2022/06/07 03:31:07;;;;;;;6.55;5.00;;;14.40;99.90;;;;;;5014411;28;20295;-70
2022/06/07 03:33:35;;;;;;;6.63;5.45;;;14.40;99.90;;;;;;5014996;28;20290;-71
2022/06/07 03:36:10;;;;;;;9.23;5.32;;;14.30;99.90;;;;;;5010361;28;20678;-70
2022/06/07 03:38:38;;;;;;;6.95;5.35;;;14.20;99.90;;;;;;5006940;28;20209;-71
2022/06/07 03:41:07;;;;;;;6.13;5.18;;;14.20;99.90;;;;;;5017304;28;20205;-72
2022/06/07 03:43:35;;;;;;;7.55;6.00;;;14.20;99.90;;;;;;5014958;28;20224;-70
2022/06/07 03:46:10;;;;;;;10.25;6.00;;;14.20;99.90;;;;;;5014774;28;20232;-73
2022/06/07 03:48:37;;;;;;;6.43;5.55;;;14.30;99.90;;;;;;5014082;28;20556;-70
2022/06/07 03:51:06;;;;;;;8.32;5.75;;;14.20;99.90;;;;;;5013819;28;20742;-70
2022/06/07 03:53:35;;;;;;;6.55;5.90;;;14.20;99.90;;;;;;5013436;28;20227;-70
2022/06/07 03:56:03;;;;;;;10.70;6.75;;;14.20;99.90;;;;;;5014599;28;20288;-71
2022/06/07 03:58:30;;;;;;;6.90;5.53;;;14.20;99.90;;;;;;5016072;28;20276;-71
2022/06/07 04:00:58;;;;;;;7.55;5.68;;;14.10;99.90;;;;;;5013021;28;20217;-71
2022/06/07 04:03:26;;;;;;;7.40;6.00;;;14.10;99.90;;;;;;5006580;28;20303;-72
2022/06/07 04:05:53;;;;;;;6.28;5.53;;;14.20;99.90;;;;;;5016938;28;20213;-72
2022/06/07 04:08:21;;;;;;;8.25;7.43;;;14.30;99.90;;;;;;5017786;28;20610;-71
2022/06/07 04:10:51;;;;;;;10.07;6.35;;;14.30;99.90;;;;;;5023276;28;20284;-70
2022/06/07 04:13:19;;;;;;;11.73;6.90;;;14.30;99.90;;;;;;5025640;28;20260;-71
2022/06/07 04:15:47;;;;;;;7.88;7.07;;;14.20;99.90;;;;;;5014186;28;20622;-71
2022/06/07 04:18:14;;;;;;;8.73;6.75;;;14.20;99.90;;;;;;5016766;28;20593;-73
2022/06/07 04:20:41;;;;;;;9.43;7.82;;;14.20;99.90;;;;;;5024499;28;20674;-71
2022/06/07 04:23:08;;;;;;;9.35;8.43;;;14.30;99.90;;;;;;5022259;28;20359;-72
2022/06/07 04:25:36;;;;;;;8.85;7.95;;;14.30;99.90;;;;;;5013641;28;20232;-72
2022/06/07 04:28:05;;;;;;;13.25;9.73;;;14.40;99.90;;;;;;5013012;28;20229;-71
2022/06/07 04:30:33;;;;;;;11.55;9.73;;;14.40;99.90;;;;;;5014887;28;20287;-70
2022/06/07 04:33:00;;;;;;;9.32;8.43;;;14.40;99.90;;;;;;5007515;28;20286;-70
2022/06/07 04:35:28;;;;;;;13.00;9.95;;;14.50;99.90;;;;;;5007241;28;20201;-72
2022/06/07 04:37:55;;;;;;;11.85;10.63;;;14.50;99.90;;;;;;5009196;28;20196;-72
2022/06/07 04:40:23;;;;;;;14.05;11.60;;;14.50;99.90;;;;;;5022107;28;20207;-72
2022/06/07 04:42:50;;;;;;;14.13;10.88;;;14.50;99.90;;;;;;5012166;28;20620;-73
2022/06/07 04:45:19;;;;;;;11.27;10.15;;;14.50;99.90;;;;;;5011948;28;20287;-72
2022/06/07 04:47:47;;;;;;;13.70;11.45;;;14.50;99.90;;;;;;5017704;28;20289;-71
2022/06/07 04:50:18;;;;;;;13.25;10.73;;;14.60;99.90;;;;;;5013035;28;20205;-71
2022/06/07 04:52:46;;;;;;;16.52;13.80;;;14.60;99.90;;;;;;5018620;28;20299;-71
2022/06/07 04:55:14;;;;;;;15.43;11.50;;;14.60;99.90;;;;;;5017491;28;20232;-72
2022/06/07 04:57:41;;;;;;;14.85;12.10;;;14.70;99.90;;;;;;5007114;28;20722;-71
2022/06/07 05:00:13;;;;;;;21.52;14.40;;;14.70;99.90;;;;;;5011480;28;20307;-70
2022/06/07 05:02:43;;;;;;;17.83;14.73;;;14.60;99.90;;;;;;5007352;28;20257;-72
2022/06/07 05:05:11;;;;;;;16.58;13.27;;;14.70;99.90;;;;;;5018505;28;20583;-71
2022/06/07 05:07:39;;;;;;;17.98;15.18;;;14.70;99.90;;;;;;5012483;28;20215;-70
2022/06/07 05:10:08;;;;;;;16.80;14.82;;;14.70;99.90;;;;;;5026947;28;20747;-71
2022/06/07 05:12:35;;;;;;;18.38;15.23;;;14.70;99.90;;;;;;5024229;28;20343;-69
2022/06/07 05:15:03;;;;;;;18.08;16.05;;;14.80;99.90;;;;;;5012041;28;20229;-71
2022/06/07 05:17:30;;;;;;;18.15;15.93;;;14.90;99.90;;;;;;5012722;28;20224;-71
2022/06/07 05:19:59;;;;;;;20.33;16.33;;;14.90;99.90;;;;;;5020731;28;20216;-71
2022/06/07 05:22:28;;;;;;;21.45;17.30;;;14.90;99.90;;;;;;5018474;28;20224;-72
2022/06/07 05:24:56;;;;;;;22.30;17.38;;;14.90;99.90;;;;;;5020848;28;20197;-71
2022/06/07 05:27:24;;;;;;;22.23;17.63;;;15.00;99.90;;;;;;5026485;28;20232;-70
2022/06/07 05:29:54;;;;;;;19.52;17.42;;;15.00;99.90;;;;;;5018918;28;20205;-72
2022/06/07 05:32:21;;;;;;;25.83;20.65;;;15.00;99.90;;;;;;5031157;28;20315;-71
2022/06/07 05:34:48;;;;;;;22.50;17.98;;;15.00;99.90;;;;;;5019524;28;20263;-69
2022/06/07 05:37:20;;;;;;;21.25;17.15;;;15.00;99.90;;;;;;5027600;28;20614;-69
2022/06/07 05:39:48;;;;;;;25.88;20.42;;;15.10;99.90;;;;;;5027333;28;21040;-70
2022/06/07 05:42:17;;;;;;;24.70;19.65;;;15.00;99.90;;;;;;5015591;28;20267;-70
2022/06/07 05:44:45;;;;;;;25.55;19.40;;;15.10;99.90;;;;;;5016516;28;20201;-70
2022/06/07 05:47:12;;;;;;;27.13;20.92;;;15.20;99.90;;;;;;5017924;28;20197;-70
2022/06/07 05:49:38;;;;;;;23.33;20.08;;;15.30;99.90;;;;;;5022722;28;20220;-71
2022/06/07 05:52:07;;;;;;;26.08;18.38;;;15.40;99.90;;;;;;5018451;28;20311;-70
2022/06/07 05:54:38;;;;;;;23.50;19.20;;;15.50;99.90;;;;;;5025716;28;20219;-72
2022/06/07 05:57:06;;;;;;;24.73;19.63;;;15.60;99.90;;;;;;5020578;28;20201;-71
2022/06/07 05:59:33;;;;;;;24.00;18.52;;;15.70;99.90;;;;;;5021383;28;20243;-72
2022/06/07 06:02:00;;;;;;;27.23;18.88;;;15.70;99.90;;;;;;5022832;28;20308;-70
2022/06/07 06:04:29;;;;;;;26.85;18.80;;;15.70;99.90;;;;;;5025287;28;20286;-72
2022/06/07 06:06:56;;;;;;;26.48;20.63;;;15.70;99.90;;;;;;5018234;28;20203;-70
2022/06/07 06:12:09;;;;;;;24.95;18.65;;;15.70;99.90;;;;;;5032062;28;20233;-73
2022/06/07 06:14:36;;;;;;;26.02;19.80;;;15.80;99.90;;;;;;5015723;28;20297;-72
2022/06/07 06:17:04;;;;;;;22.30;19.05;;;15.70;99.90;;;;;;5024198;28;20208;-72
2022/06/07 06:19:33;;;;;;;26.20;18.92;;;15.80;99.90;;;;;;5019349;28;20208;-72
2022/06/07 06:22:00;;;;;;;28.35;18.42;;;15.80;99.90;;;;;;5026406;28;20227;-72
2022/06/07 06:24:27;;;;;;;25.10;21.27;;;15.90;99.90;;;;;;5018658;28;20283;-69
2022/06/07 06:26:54;;;;;;;23.45;18.38;;;15.90;99.90;;;;;;5016511;28;20205;-71
2022/06/07 06:29:25;;;;;;;25.05;19.10;;;15.80;99.90;;;;;;5025793;28;20228;-71
2022/06/07 06:31:53;;;;;;;23.90;19.38;;;15.80;99.90;;;;;;5016971;28;20222;-71
2022/06/07 06:34:21;;;;;;;25.70;19.13;;;15.70;99.90;;;;;;5016024;28;20229;-72
2022/06/07 06:36:48;;;;;;;20.95;18.48;;;15.70;99.90;;;;;;5013665;28;20233;-71
2022/06/07 06:39:16;;;;;;;22.15;17.45;;;15.70;99.90;;;;;;5014155;28;20287;-71
2022/06/07 06:41:45;;;;;;;22.65;19.20;;;15.90;99.90;;;;;;5014785;28;20221;-68
2022/06/07 06:44:13;;;;;;;23.48;18.67;;;15.90;99.90;;;;;;5013623;28;20203;-72
2022/06/07 06:46:44;;;;;;;23.80;17.92;;;16.00;99.90;;;;;;5020058;28;20327;-72
2022/06/07 06:49:14;;;;;;;21.23;17.05;;;16.00;99.90;;;;;;5018904;28;20208;-69
2022/06/07 06:51:42;;;;;;;18.05;15.90;;;16.00;99.90;;;;;;5014342;28;20250;-70
2022/06/07 06:54:21;;;;;;;23.80;16.25;;;16.10;99.90;;;;;;5015921;28;20221;-69
2022/06/07 06:56:49;;;;;;;17.48;15.52;;;16.00;99.90;;;;;;5021650;28;20260;-69
2022/06/07 06:59:16;;;;;;;18.65;16.20;;;16.20;99.90;;;;;;5013886;28;20272;-70
2022/06/07 07:01:45;;;;;;;16.60;14.65;;;16.40;99.90;;;;;;5020273;28;20322;-71
2022/06/07 07:04:16;;;;;;;17.20;14.00;;;16.50;99.90;;;;;;5022713;28;20221;-72
2022/06/07 07:06:43;;;;;;;15.52;13.70;;;16.60;99.90;;;;;;5023731;28;20199;-70
2022/06/07 07:09:11;;;;;;;18.92;14.93;;;16.70;99.90;;;;;;5022097;28;20245;-70
2022/06/07 07:11:41;;;;;;;19.40;14.45;;;16.70;99.90;;;;;;5014973;28;20632;-70
2022/06/07 07:14:09;;;;;;;18.80;14.80;;;16.60;99.90;;;;;;5011351;28;20255;-71
2022/06/07 07:16:39;;;;;;;20.60;15.30;;;16.50;99.90;;;;;;5015187;28;20721;-68
2022/06/07 07:19:07;;;;;;;19.10;15.55;;;16.80;99.90;;;;;;5028345;28;20206;-70
2022/06/07 07:21:38;;;;;;;16.80;14.27;;;16.70;99.90;;;;;;5023199;28;20274;-70
2022/06/07 07:24:08;;;;;;;18.67;14.32;;;16.80;99.90;;;;;;5022707;28;20657;-72
2022/06/07 07:26:36;;;;;;;21.52;14.07;;;17.10;99.90;;;;;;5026373;28;20215;-70
2022/06/07 07:29:04;;;;;;;17.88;13.85;;;17.10;99.90;;;;;;5018185;28;20217;-71
2022/06/07 07:31:33;;;;;;;16.70;14.87;;;17.30;99.90;;;;;;5018577;28;20234;-73
2022/06/07 07:34:03;;;;;;;16.70;14.87;;;17.30;99.90;;;;;;5016407;28;20523;-70
2022/06/07 07:36:32;;;;;;;18.25;16.45;;;17.10;99.90;;;;;;5018415;28;20442;-71
2022/06/07 07:38:59;;;;;;;19.23;16.38;;;17.00;99.90;;;;;;5016106;28;20203;-70
2022/06/07 07:41:28;;;;;;;16.73;14.88;;;16.80;99.90;;;;;;5018501;28;20202;-71
2022/06/07 07:43:56;;;;;;;17.20;15.25;;;16.80;99.90;;;;;;5021182;28;20207;-70
2022/06/07 07:46:25;;;;;;;21.17;15.32;;;16.70;99.90;;;;;;5019802;28;20205;-71
2022/06/07 07:48:52;;;;;;;18.10;15.18;;;16.90;99.90;;;;;;5018606;28;20242;-72
2022/06/07 07:51:22;;;;;;;14.90;13.40;;;16.80;99.90;;;;;;5023837;28;20293;-71
2022/06/07 07:53:50;;;;;;;14.77;13.25;;;16.90;99.90;;;;;;5016103;28;20853;-72
2022/06/07 07:56:18;;;;;;;15.70;14.00;;;17.00;99.90;;;;;;5025871;28;20230;-70
2022/06/07 07:58:45;;;;;;;16.10;14.00;;;17.00;99.90;;;;;;5019311;28;20233;-70
2022/06/07 08:01:14;;;;;;;18.65;14.52;;;17.20;99.90;;;;;;5017219;28;20246;-70
2022/06/07 08:03:42;;;;;;;15.98;14.07;;;17.20;99.90;;;;;;5005165;28;20265;-70
2022/06/07 08:06:12;;;;;;;14.50;13.10;;;17.30;99.90;;;;;;5012725;28;20290;-70
2022/06/07 08:08:40;;;;;;;14.95;12.20;;;17.40;99.90;;;;;;5013146;28;20208;-71
2022/06/07 08:11:09;;;;;;;16.80;12.63;;;17.40;99.90;;;;;;5022109;28;20258;-72
2022/06/07 08:13:36;;;;;;;15.20;13.52;;;17.40;99.90;;;;;;5012895;28;20314;-71
2022/06/07 08:16:05;;;;;;;15.88;14.18;;;17.20;99.90;;;;;;5012247;28;20226;-69
2022/06/07 08:18:33;;;;;;;17.37;15.57;;;17.10;99.90;;;;;;5012752;28;20626;-71
2022/06/07 08:21:05;;;;;;;17.17;14.87;;;17.10;99.90;;;;;;5012700;28;21024;-70
2022/06/07 08:23:32;;;;;;;21.50;14.00;;;17.30;99.90;;;;;;5013767;28;20494;-70
2022/06/07 08:26:00;;;;;;;16.33;14.52;;;17.20;99.90;;;;;;5016941;28;20804;-71
2022/06/07 08:28:29;;;;;;;14.87;13.47;;;17.20;99.90;;;;;;5018019;28;20204;-70
2022/06/07 08:30:56;;;;;;;15.37;13.60;;;17.30;99.90;;;;;;5021964;28;20932;-72
2022/06/07 08:38:53;;;;;;;12.80;11.50;;;18.00;99.90;;;;;;5025758;28;20466;-70
2022/06/07 08:41:24;;;;;;;14.77;12.87;;;18.40;99.90;;;;;;5017412;28;20461;-71
2022/06/07 08:43:56;;;;;;;14.67;12.73;;;18.30;99.90;;;;;;5010399;28;20881;-73
2022/06/07 08:46:29;;;;;;;15.17;13.70;;;18.40;99.90;;;;;;5020591;28;20479;-71
2022/06/07 08:48:56;;;;;;;16.60;14.67;;;18.50;99.90;;;;;;5011057;28;20465;-70
2022/06/07 08:51:28;;;;;;;18.40;12.30;;;18.40;99.90;;;;;;5023917;28;20538;-72
2022/06/07 08:54:02;;;;;;;15.27;12.07;;;18.60;99.90;;;;;;5016569;28;20546;-72
2022/06/07 08:56:32;;;;;;;14.17;12.77;;;18.60;99.90;;;;;;5015094;28;20473;-72
2022/06/07 08:59:11;;;;;;;17.53;14.40;;;18.40;99.90;;;;;;5017183;28;20463;-72
2022/06/07 09:01:47;;;;;;;14.83;11.80;;;18.30;99.90;;;;;;5017287;28;20502;-70
2022/06/07 09:04:19;;;;;;;12.33;10.93;;;18.50;99.90;;;;;;5017183;28;20476;-70
2022/06/07 09:06:48;;;;;;;10.80;9.80;;;19.80;99.90;;;;;;5016477;28;20512;-71
2022/06/07 09:09:19;;;;;;;12.20;10.93;;;20.40;99.90;;;;;;5013429;28;20469;-72
2022/06/07 09:14:36;;;;;;;11.70;10.50;;;19.90;99.90;;;;;;5013226;28;20513;-71
2022/06/07 09:17:10;;;;;;;12.00;10.17;;;19.90;99.90;;;;;;5014484;28;20866;-72
2022/06/07 09:19:38;;;;;;;14.53;10.70;;;20.10;99.90;;;;;;5023374;28;20542;-70
2022/06/07 09:22:14;;;;;;;14.53;10.80;;;19.70;99.90;;;;;;5020062;28;20552;-74
2022/06/07 09:24:43;;;;;;;11.20;10.10;;;19.10;99.90;;;;;;5011614;28;20523;-72
2022/06/07 09:27:17;;;;;;;13.80;12.40;;;18.80;99.90;;;;;;5011593;28;20455;-72
2022/06/07 09:29:53;;;;;;;13.30;11.53;;;18.20;99.90;;;;;;5013918;28;20514;-72
2022/06/07 09:32:23;;;;;;;18.63;11.97;;;18.00;99.90;;;;;;5008934;28;20465;-72
2022/06/07 09:34:58;;;;;;;12.20;11.10;;;17.90;99.90;;;;;;5025003;28;20848;-71
2022/06/07 09:37:31;;;;;;;15.10;11.30;;;17.80;99.90;;;;;;5005347;28;20478;-71
2022/06/07 09:40:21;;;;;;;15.20;12.13;;;17.80;99.90;;;;;;5012450;28;20833;-71
2022/06/07 09:42:54;;;;;;;19.27;14.50;;;17.90;99.90;;;;;;5016984;28;20979;-72
2022/06/07 09:45:28;;;;;;;12.37;11.10;;;17.80;99.90;;;;;;5011029;28;20839;-73
2022/06/07 09:47:55;;;;;;;15.97;13.40;;;17.70;99.90;;;;;;5014348;28;20774;-71
2022/06/07 09:50:26;;;;;;;13.77;12.38;;;17.60;99.90;;;;;;5010275;28;20447;-71
2022/06/07 09:52:56;;;;;;;15.70;14.10;;;17.60;99.90;;;;;;5012357;28;20659;-72
2022/06/07 09:55:30;;;;;;;16.70;12.60;;;17.60;99.90;;;;;;5019747;28;20485;-73
2022/06/07 09:58:15;;;;;;;19.47;13.20;;;17.60;99.90;;;;;;5012207;28;20458;-73
2022/06/07 10:00:49;;;;;;;18.37;13.00;;;17.50;99.90;;;;;;5005939;28;20451;-70
2022/06/07 10:03:34;;;;;;;14.00;12.53;;;17.60;99.90;;;;;;5011801;28;20856;-72
2022/06/07 10:06:22;;;;;;;16.00;13.37;;;17.60;99.90;;;;;;5010446;28;20455;-72
2022/06/07 10:09:02;;;;;;;12.57;11.33;;;17.50;99.90;;;;;;5017953;28;20453;-71
2022/06/07 10:11:36;;;;;;;16.23;12.20;;;17.50;99.90;;;;;;5012349;28;20534;-73
2022/06/07 10:14:26;;;;;;;10.27;8.77;;;17.70;99.90;;;;;;5019574;28;20885;-73
2022/06/07 10:17:10;;;;;;;11.47;10.27;;;17.80;99.90;;;;;;5018578;28;20855;-72
2022/06/07 10:19:49;;;;;;;11.00;9.90;;;18.00;99.90;;;;;;5020750;28;20479;-71
2022/06/07 10:22:41;;;;;;;18.60;9.10;;;17.90;99.90;;;;;;5021664;28;20475;-71
2022/06/07 10:25:15;;;;;;;17.13;9.80;;;17.90;99.90;;;;;;5016551;28;20523;-72
2022/06/07 10:28:02;;;;;;;9.60;8.60;;;17.90;99.90;;;;;;5025168;28;20944;-72
2022/06/07 10:30:38;;;;;;;9.47;8.47;;;17.70;99.90;;;;;;5021656;28;20537;-72
2022/06/07 10:33:33;;;;;;;12.53;11.10;;;17.80;99.90;;;;;;5014806;28;20538;-71
2022/06/07 10:36:07;;;;;;;12.20;11.00;;;17.70;99.90;;;;;;5023257;28;20991;-73
2022/06/07 10:39:02;;;;;;;12.10;10.90;;;17.70;99.90;;;;;;5013507;28;20553;-72
2022/06/07 10:41:33;;;;;;;24.47;11.70;;;18.00;99.90;;;;;;5006570;28;20479;-74
2022/06/07 10:44:09;;;;;;;17.20;10.43;;;18.20;99.90;;;;;;5015560;28;20498;-72
2022/06/07 10:46:37;;;;;;;16.53;10.83;;;18.30;99.90;;;;;;5015714;28;20506;-74
2022/06/07 10:49:15;;;;;;;12.27;9.60;;;18.30;99.90;;;;;;5015146;28;20456;-71
2022/06/07 10:54:32;;;;;;;10.50;9.50;;;18.00;99.90;;;;;;5015450;28;20427;-71
2022/06/07 10:57:10;;;;;;;12.20;10.00;;;17.80;99.90;;;;;;5012855;28;20506;-72
2022/06/07 10:59:40;;;;;;;10.73;9.63;;;17.70;99.90;;;;;;5012319;28;20474;-71
2022/06/07 11:02:20;;;;;;;11.63;10.53;;;17.80;99.90;;;;;;5014408;28;20474;-71
2022/06/07 11:10:33;;;;;;;12.80;9.63;;;18.00;99.90;;;;;;5011555;28;20456;-71
2022/06/07 11:13:07;;;;;;;12.00;10.80;;;18.00;99.90;;;;;;5023374;28;20505;-72
2022/06/07 11:15:39;;;;;;;13.70;12.30;;;17.80;99.90;;;;;;5013782;28;20896;-71
2022/06/07 11:18:10;;;;;;;12.40;11.20;;;17.80;99.90;;;;;;5015428;28;20448;-72
2022/06/07 11:20:50;;;;;;;12.50;10.57;;;18.00;99.90;;;;;;5026418;28;20455;-71
2022/06/07 11:23:23;;;;;;;12.07;10.90;;;18.50;99.90;;;;;;5020093;28;20460;-71
2022/06/07 11:26:00;;;;;;;10.77;9.63;;;19.20;99.90;;;;;;5016581;28;20754;-72
2022/06/07 11:28:31;;;;;;;10.40;9.30;;;19.50;99.90;;;;;;5022994;28;20454;-74
2022/06/07 11:31:03;;;;;;;10.60;8.50;;;19.50;99.90;;;;;;5021528;28;21002;-73
2022/06/07 11:33:43;;;;;;;11.70;7.97;;;19.30;99.90;;;;;;5019500;28;20482;-73
2022/06/07 11:36:32;;;;;;;10.67;7.50;;;19.30;99.90;;;;;;5019726;28;20854;-74
2022/06/07 11:39:03;;;;;;;6.77;6.07;;;19.10;99.90;;;;;;5021525;28;20456;-71
2022/06/07 11:41:52;;;;;;;7.17;6.47;;;19.00;99.90;;;;;;5012514;28;20446;-71
2022/06/07 11:45:04;;;;;;;9.00;6.73;;;18.90;99.90;;;;;;5026225;28;20535;-74
2022/06/07 11:47:36;;;;;;;7.73;6.37;;;18.60;99.90;;;;;;4959036;28;20438;-73
2022/06/07 11:50:27;;;;;;;7.90;7.03;;;18.70;99.90;;;;;;5008382;28;20491;-72
2022/06/07 11:53:20;;;;;;;7.67;6.87;;;18.80;99.90;;;;;;5012949;28;20468;-73
2022/06/07 11:55:50;;;;;;;13.60;7.87;;;18.70;99.90;;;;;;5014287;28;20600;-74
2022/06/07 11:58:38;;;;;;;8.17;7.37;;;18.50;99.90;;;;;;5016542;28;20444;-75
2022/06/07 12:01:24;;;;;;;8.50;7.60;;;18.50;99.90;;;;;;5017650;28;20498;-71
2022/06/07 12:04:28;;;;;;;7.40;6.60;;;18.30;99.90;;;;;;5020744;28;20913;-71
2022/06/07 12:07:06;;;;;;;7.90;7.10;;;18.20;99.90;;;;;;5020542;28;20922;-72
2022/06/07 12:09:35;;;;;;;10.93;7.90;;;18.30;99.90;;;;;;5007518;28;20974;-73
2022/06/07 12:12:18;;;;;;;7.60;6.90;;;18.40;99.90;;;;;;5021664;28;20547;-71
2022/06/07 12:14:49;;;;;;;11.17;8.60;;;18.50;99.90;;;;;;5011486;28;20471;-73
2022/06/07 12:17:25;;;;;;;9.00;8.10;;;18.50;99.90;;;;;;5013140;28;20479;-73
2022/06/07 12:19:53;;;;;;;11.67;8.37;;;18.60;99.90;;;;;;5011691;28;20483;-73
2022/06/07 12:22:23;;;;;;;8.13;7.33;;;18.60;99.90;;;;;;5028424;28;20474;-72
2022/06/07 12:24:56;;;;;;;8.47;7.57;;;18.70;99.90;;;;;;5025867;28;20932;-72
2022/06/07 12:27:28;;;;;;;8.80;6.90;;;18.90;99.90;;;;;;5019339;28;20471;-73
2022/06/07 12:30:00;;;;;;;8.33;7.50;;;19.10;99.90;;;;;;5030068;28;20510;-73
2022/06/07 12:32:33;;;;;;;6.50;5.90;;;19.00;99.90;;;;;;5023038;28;20551;-71
2022/06/07 12:35:15;;;;;;;6.73;6.03;;;19.30;99.90;;;;;;5018742;28;20448;-73
2022/06/07 12:37:46;;;;;;;7.53;6.70;;;19.60;99.90;;;;;;5021776;28;20448;-72
2022/06/07 12:40:48;;;;;;;7.30;6.60;;;19.80;99.60;;;;;;5021254;28;20447;-73
2022/06/07 12:43:21;;;;;;;8.10;7.13;;;19.50;98.90;;;;;;5009685;28;20534;-73
2022/06/07 12:45:59;;;;;;;9.87;6.30;;;19.40;99.80;;;;;;5017288;28;20518;-73
2022/06/07 12:48:28;;;;;;;10.17;7.00;;;19.60;99.90;;;;;;5007072;28;20557;-72
2022/06/07 12:50:55;;;;;;;8.00;6.40;;;19.50;98.90;;;;;;5023606;28;20440;-73
2022/06/07 12:53:25;;;;;;;6.73;6.03;;;19.50;98.90;;;;;;5018037;28;20494;-72
2022/06/07 12:55:59;;;;;;;9.33;6.40;;;19.40;99.10;;;;;;5021570;28;20499;-72
2022/06/07 12:58:30;;;;;;;8.57;6.60;;;19.20;99.00;;;;;;5016158;28;20451;-71
2022/06/07 13:00:58;;;;;;;6.30;5.60;;;19.10;99.90;;;;;;5022160;28;20462;-71
2022/06/07 13:03:31;;;;;;;8.33;6.77;;;19.20;99.90;;;;;;5014591;28;20468;-74
2022/06/07 13:06:01;;;;;;;7.27;5.70;;;19.30;99.90;;;;;;5010121;28;20451;-73
2022/06/07 13:08:36;;;;;;;7.53;6.70;;;19.30;99.60;;;;;;5012835;28;20448;-73
2022/06/07 13:11:06;;;;;;;8.77;6.27;;;19.30;99.40;;;;;;5010135;28;20435;-71
2022/06/07 13:13:36;;;;;;;6.43;5.83;;;19.50;99.30;;;;;;5012611;28;20534;-73
2022/06/07 13:16:17;;;;;;;7.30;5.97;;;19.70;98.90;;;;;;5011798;28;20534;-75
2022/06/07 13:18:58;;;;;;;8.63;7.30;;;19.80;98.70;;;;;;5015043;28;21008;-73
2022/06/07 13:21:31;;;;;;;8.63;6.10;;;20.00;98.40;;;;;;5009860;28;20481;-73
2022/06/07 13:24:00;;;;;;;9.40;7.37;;;20.00;98.20;;;;;;5011232;28;20448;-73